Chilmark, Massachusetts
Current Conditions -  °F | °C
As of 4:53 PM on Sunday 21 Dec 2014 (Local Time) from KMVY Reporting Station
Overcast Overcast  
Wind Chill: 37°   Ceiling: 4300
Heat Index: 40°   Visibility: 10mi
Dew Point: 32°   Wind: 5mph
Humidity: 73%   Direction: 30°NNE
Pressure: 30.28"   Gusts: NA
Location:  41.34°N, 70.75°W
Report Text: KMVY 212153Z 03004KT 10SM OVC043 04/00 A3028 RMK AO2 SLP252 T00440000
Loading
Personal Weather Stations






























Interactive Weather Map New forecast layout! Learn more

10-Day Weather Forecast

Advertisements
Track Severe Weather on mobile